createdAt,value
2018-01-02T00:01:01.538Z,61.00
2018-01-02T00:03:29.779Z,60.70
2018-01-02T00:05:58.064Z,61.20
2018-01-02T00:08:26.317Z,61.00
2018-01-02T00:10:54.797Z,61.10
2018-01-02T00:13:23.008Z,61.10
2018-01-02T00:15:52.051Z,61.20
2018-01-02T00:18:20.308Z,61.00
2018-01-02T00:20:48.561Z,61.30
2018-01-02T00:23:17.611Z,61.20
2018-01-02T00:25:45.892Z,61.00
2018-01-02T00:28:14.139Z,61.00
2018-01-02T00:30:43.309Z,60.80
2018-01-02T00:33:12.427Z,61.20
2018-01-02T00:35:40.697Z,61.00
2018-01-02T00:38:08.968Z,61.00
2018-01-02T00:40:37.255Z,61.10
2018-01-02T00:43:05.508Z,61.10
2018-01-02T00:45:33.766Z,60.90
2018-01-02T00:48:02.032Z,60.90
2018-01-02T00:50:30.290Z,61.10
2018-01-02T00:53:00.036Z,60.60
2018-01-02T00:55:28.762Z,60.80
2018-01-02T00:57:57.004Z,60.60
2018-01-02T01:00:25.473Z,60.20
2018-01-02T01:02:53.732Z,60.00
2018-01-02T01:05:21.995Z,60.30
2018-01-02T01:07:50.236Z,59.90
2018-01-02T01:10:18.520Z,59.80
2018-01-02T01:12:47.561Z,59.70
2018-01-02T01:15:16.592Z,59.90
2018-01-02T01:17:44.852Z,59.80
2018-01-02T01:20:13.240Z,59.70
2018-01-02T01:22:41.499Z,59.70
2018-01-02T01:25:10.516Z,59.70
2018-01-02T01:27:38.827Z,59.70
2018-01-02T01:30:07.076Z,59.90
2018-01-02T01:32:35.361Z,59.90
2018-01-02T01:35:03.631Z,60.40
2018-01-02T01:37:31.873Z,60.20
2018-01-02T01:40:00.181Z,60.30
2018-01-02T01:42:28.423Z,60.30
2018-01-02T01:44:57.440Z,60.00
2018-01-02T01:47:26.015Z,61.00
2018-01-02T01:49:54.270Z,60.50
2018-01-02T01:52:22.541Z,60.00
2018-01-02T01:54:51.579Z,60.10
2018-01-02T01:57:19.836Z,60.20
2018-01-02T01:59:48.121Z,59.90
2018-01-02T02:02:16.406Z,60.00
2018-01-02T02:04:44.700Z,60.30
2018-01-02T02:07:12.959Z,60.10
2018-01-02T02:09:41.211Z,59.90
2018-01-02T02:12:09.508Z,59.80
2018-01-02T02:14:37.763Z,59.90
2018-01-02T02:17:06.036Z,59.70
2018-01-02T02:19:34.623Z,60.30
2018-01-02T02:22:03.637Z,59.80
2018-01-02T02:24:31.924Z,59.90
2018-01-02T02:27:02.359Z,60.10
2018-01-02T02:29:30.664Z,61.00
2018-01-02T02:31:58.964Z,60.20
2018-01-02T02:34:27.268Z,60.00
2018-01-02T02:36:55.548Z,60.20
2018-01-02T02:39:23.799Z,60.50
2018-01-02T02:41:52.080Z,60.40
2018-01-02T02:44:20.335Z,60.20
2018-01-02T02:46:48.597Z,60.40
2018-01-02T02:49:17.624Z,59.90
2018-01-02T02:51:45.872Z,60.00
2018-01-02T02:54:14.895Z,60.20
2018-01-02T02:56:43.235Z,60.10
2018-01-02T02:59:12.398Z,60.00
2018-01-02T03:01:40.688Z,60.00
2018-01-02T03:04:09.257Z,59.90
2018-01-02T03:06:37.512Z,60.00
2018-01-02T03:09:05.753Z,60.00
2018-01-02T03:11:34.066Z,60.00
2018-01-02T03:14:02.334Z,60.30
2018-01-02T03:16:30.644Z,60.40
2018-01-02T03:18:58.891Z,60.50
2018-01-02T03:21:28.562Z,60.50
2018-01-02T03:23:57.696Z,60.20
2018-01-02T03:26:25.946Z,59.80
2018-01-02T03:28:54.191Z,60.00
2018-01-02T03:31:22.468Z,59.70
2018-01-02T03:33:51.162Z,60.00
2018-01-02T03:36:20.216Z,59.80
2018-01-02T03:38:48.472Z,59.70
2018-01-02T03:41:17.724Z,59.60
2018-01-02T03:43:46.028Z,59.80
2018-01-02T03:46:14.399Z,59.60
2018-01-02T03:48:42.674Z,59.70
2018-01-02T03:51:11.707Z,59.90
2018-01-02T03:53:39.952Z,59.80
2018-01-02T03:56:08.224Z,59.80
2018-01-02T03:58:36.464Z,59.80
2018-01-02T04:01:04.779Z,59.70
2018-01-02T04:03:33.952Z,59.40
2018-01-02T04:06:03.087Z,59.50
2018-01-02T04:08:31.397Z,59.30
2018-01-02T04:10:59.648Z,59.50
2018-01-02T04:13:27.898Z,59.50
2018-01-02T04:15:56.144Z,59.20
2018-01-02T04:18:24.442Z,59.10
2018-01-02T04:20:54.366Z,59.10
2018-01-02T04:23:22.567Z,59.10
2018-01-02T04:25:50.849Z,59.10
2018-01-02T04:28:19.085Z,59.10
2018-01-02T04:30:47.353Z,59.10
2018-01-02T04:33:15.723Z,59.50
2018-01-02T04:35:43.992Z,59.10
2018-01-02T04:38:12.255Z,59.10
2018-01-02T04:40:40.524Z,58.90
2018-01-02T04:43:08.799Z,59.00
2018-01-02T04:45:37.149Z,59.00
2018-01-02T04:48:05.452Z,58.80
2018-01-02T04:50:33.720Z,59.00
2018-01-02T04:53:01.960Z,58.90
2018-01-02T04:55:30.232Z,59.10
2018-01-02T04:57:58.492Z,59.00
2018-01-02T05:00:26.744Z,58.90
2018-01-02T05:02:55.692Z,59.10
2018-01-02T05:05:23.969Z,59.10
2018-01-02T05:07:52.897Z,59.20
2018-01-02T05:10:21.153Z,59.00
2018-01-02T05:12:49.398Z,58.90
2018-01-02T05:15:17.624Z,59.00
2018-01-02T05:17:45.959Z,58.60
2018-01-02T05:20:15.698Z,58.80
2018-01-02T05:22:43.980Z,58.90
2018-01-02T05:25:12.210Z,59.10
2018-01-02T05:27:41.252Z,59.10
2018-01-02T05:30:09.596Z,58.90
2018-01-02T05:32:37.832Z,59.10
2018-01-02T05:35:06.998Z,59.20
2018-01-02T05:37:35.979Z,59.20
2018-01-02T05:40:04.952Z,59.30
2018-01-02T05:42:34.084Z,59.30
2018-01-02T05:45:02.835Z,59.30
2018-01-02T05:47:31.846Z,59.20
2018-01-02T05:50:01.005Z,59.30
2018-01-02T05:52:29.269Z,59.30
2018-01-02T05:54:57.669Z,59.10
2018-01-02T05:57:25.929Z,59.30
2018-01-02T05:59:54.204Z,59.20
2018-01-02T06:02:22.497Z,59.10
2018-01-02T06:04:50.747Z,59.40
2018-01-02T06:07:19.809Z,59.60
2018-01-02T06:09:48.061Z,59.50
2018-01-02T06:12:17.090Z,60.00
2018-01-02T06:14:45.364Z,59.50
2018-01-02T06:17:13.794Z,59.40
2018-01-02T06:19:42.890Z,59.30
2018-01-02T06:22:11.196Z,59.50
2018-01-02T06:24:40.265Z,59.60
2018-01-02T06:27:08.528Z,59.50
2018-01-02T06:29:37.019Z,59.80
2018-01-02T06:32:05.277Z,59.50
2018-01-02T06:34:34.456Z,59.70
2018-01-02T06:37:02.766Z,59.80
2018-01-02T06:39:30.998Z,59.60
2018-01-02T06:41:59.256Z,59.60
2018-01-02T06:44:27.574Z,60.40
2018-01-02T06:46:55.935Z,59.60
2018-01-02T06:49:24.226Z,60.00
2018-01-02T06:51:52.519Z,59.90
2018-01-02T06:54:20.794Z,60.00
2018-01-02T06:56:50.244Z,60.00
2018-01-02T06:59:18.554Z,60.00
2018-01-02T07:01:46.815Z,60.50
2018-01-02T07:04:15.098Z,60.10
2018-01-02T07:06:43.353Z,59.90
2018-01-02T07:09:11.652Z,59.90
2018-01-02T07:11:39.887Z,59.90
2018-01-02T07:14:08.927Z,60.00
2018-01-02T07:16:37.768Z,59.90
2018-01-02T07:19:06.041Z,60.00
2018-01-02T07:21:34.332Z,59.90
2018-01-02T07:24:03.534Z,60.00
2018-01-02T07:26:32.536Z,60.00
2018-01-02T07:29:00.828Z,60.10
2018-01-02T07:31:29.920Z,60.20
2018-01-02T07:33:58.196Z,60.10
2018-01-02T07:36:29.017Z,60.00
2018-01-02T07:38:58.344Z,59.70
2018-01-02T07:41:26.595Z,60.00
2018-01-02T07:43:54.860Z,60.00
2018-01-02T07:46:23.272Z,60.10
2018-01-02T07:48:52.407Z,60.40
2018-01-02T07:51:20.690Z,60.10
2018-01-02T07:53:49.098Z,59.90
2018-01-02T07:56:19.285Z,60.80
2018-01-02T07:58:47.532Z,60.10
2018-01-02T08:01:15.789Z,60.20
2018-01-02T08:03:44.043Z,60.10
2018-01-02T08:06:13.068Z,60.00
2018-01-02T08:08:41.322Z,60.20
2018-01-02T08:11:09.592Z,60.10
2018-01-02T08:13:37.935Z,60.30
2018-01-02T08:16:06.183Z,60.50
2018-01-02T08:18:34.459Z,60.80
2018-01-02T08:21:02.728Z,60.80
2018-01-02T08:23:31.115Z,60.80
2018-01-02T08:25:59.371Z,60.80
2018-01-02T08:28:28.519Z,60.30
2018-01-02T08:30:56.799Z,60.40
2018-01-02T08:33:25.067Z,60.70
2018-01-02T08:35:54.796Z,60.50
2018-01-02T08:38:24.673Z,60.70
2018-01-02T08:40:53.703Z,60.60
2018-01-02T08:43:21.997Z,60.70
2018-01-02T08:45:50.279Z,60.50
2018-01-02T08:48:18.516Z,60.60
2018-01-02T08:50:46.764Z,61.00
2018-01-02T08:53:15.036Z,61.00
2018-01-02T08:55:43.302Z,60.60
2018-01-02T08:58:11.596Z,60.80
2018-01-02T09:00:39.898Z,61.00
2018-01-02T09:03:09.137Z,60.90
2018-01-02T09:05:38.455Z,60.70
2018-01-02T09:08:06.749Z,61.00
2018-01-02T09:10:35.005Z,60.80
2018-01-02T09:16:03.048Z,60.80
2018-01-02T09:18:31.377Z,61.00
2018-01-02T09:21:00.596Z,60.70
2018-01-02T09:23:28.862Z,60.40
2018-01-02T09:25:57.530Z,60.50
2018-01-02T09:28:25.791Z,60.90
2018-01-02T09:30:54.107Z,60.30
2018-01-02T09:33:22.380Z,60.30
2018-01-02T09:35:51.521Z,60.00
2018-01-02T09:38:19.807Z,60.00
2018-01-02T09:40:48.880Z,60.20
2018-01-02T09:43:17.996Z,60.00
2018-01-02T09:45:47.039Z,60.10
2018-01-02T09:48:15.417Z,60.00
2018-01-02T09:50:44.662Z,60.00
2018-01-02T09:53:13.685Z,59.90
2018-01-02T09:55:41.943Z,59.90
2018-01-02T09:58:10.247Z,60.00
2018-01-02T10:00:38.488Z,59.80
2018-01-02T10:03:06.780Z,59.90
2018-01-02T10:05:35.073Z,59.90
2018-01-02T10:08:04.800Z,59.80
2018-01-02T10:10:33.080Z,59.80
2018-01-02T10:13:01.348Z,59.80
2018-01-02T10:15:29.623Z,59.90
2018-01-02T10:17:57.910Z,59.90
2018-01-02T10:20:26.359Z,60.00
2018-01-02T10:22:54.614Z,59.80
2018-01-02T10:25:22.891Z,59.70
2018-01-02T10:27:52.170Z,59.70
2018-01-02T10:30:20.444Z,59.80
2018-01-02T10:32:48.712Z,59.50
2018-01-02T10:35:17.016Z,59.60
2018-01-02T10:37:45.259Z,59.20
2018-01-02T10:40:13.548Z,58.90
2018-01-02T10:42:41.811Z,58.80
2018-01-02T10:45:11.595Z,59.00
2018-01-02T10:47:40.282Z,58.90
2018-01-02T10:50:09.529Z,59.10
2018-01-02T10:52:37.797Z,59.00
2018-01-02T10:55:06.070Z,59.10
2018-01-02T10:57:35.843Z,58.90
2018-01-02T11:00:04.984Z,58.80
2018-01-02T11:02:35.203Z,59.00
2018-01-02T11:05:04.240Z,58.90
2018-01-02T11:07:32.491Z,58.90
2018-01-02T11:10:01.656Z,59.10
2018-01-02T11:12:35.658Z,59.10
2018-01-02T11:15:04.982Z,59.20
2018-01-02T11:17:33.224Z,58.60
2018-01-02T11:20:01.492Z,58.80
2018-01-02T11:22:29.777Z,58.70
2018-01-02T11:24:58.201Z,58.60
2018-01-02T11:27:26.465Z,58.20
2018-01-02T11:29:55.608Z,58.30
2018-01-02T11:32:23.940Z,58.30
2018-01-02T11:34:52.197Z,58.50
2018-01-02T11:37:20.469Z,58.50
2018-01-02T11:39:50.244Z,58.60
2018-01-02T11:42:18.524Z,58.60
2018-01-02T11:44:46.840Z,58.30
2018-01-02T11:47:15.128Z,58.30
2018-01-02T11:49:43.416Z,58.30
2018-01-02T11:52:12.680Z,58.30
2018-01-02T11:54:40.919Z,58.40
2018-01-02T11:57:09.212Z,58.30
2018-01-02T11:59:37.521Z,58.10
2018-01-02T12:02:06.581Z,58.20
2018-01-02T12:04:34.834Z,58.60
2018-01-02T12:07:03.364Z,58.40
2018-01-02T12:09:31.783Z,58.30
2018-01-02T12:12:00.863Z,58.10
2018-01-02T12:14:29.136Z,58.20
2018-01-02T12:16:58.209Z,57.90
2018-01-02T12:19:26.515Z,58.20
2018-01-02T12:21:54.760Z,58.10
2018-01-02T12:24:23.247Z,57.90
2018-01-02T12:26:51.528Z,57.60
2018-01-02T12:29:19.772Z,57.30
2018-01-02T12:31:48.122Z,57.80
2018-01-02T12:34:16.585Z,57.80
2018-01-02T12:36:44.855Z,57.70
2018-01-02T12:39:13.137Z,57.70
2018-01-02T12:41:41.462Z,57.70
2018-01-02T12:44:10.977Z,58.00
2018-01-02T12:46:46.888Z,57.80
2018-01-02T12:49:15.136Z,57.80
2018-01-02T12:51:45.160Z,57.50
2018-01-02T12:54:13.414Z,57.50
2018-01-02T12:56:41.733Z,57.50
2018-01-02T12:59:10.191Z,57.50
2018-01-02T13:01:38.462Z,57.40
2018-01-02T13:04:06.717Z,57.60
2018-01-02T13:06:35.012Z,57.70
2018-01-02T13:09:03.281Z,57.60
2018-01-02T13:11:32.318Z,57.80
2018-01-02T13:14:00.692Z,57.70
2018-01-02T13:16:29.832Z,57.70
2018-01-02T13:18:58.870Z,57.60
2018-01-02T13:21:27.184Z,57.70
2018-01-02T13:23:56.169Z,58.10
2018-01-02T13:26:25.346Z,57.90
2018-01-02T13:28:53.608Z,57.90
2018-01-02T13:31:22.412Z,57.80
2018-01-02T13:33:50.669Z,57.90
2018-01-02T13:36:18.929Z,57.80
2018-01-02T13:38:47.167Z,57.90
2018-01-02T13:41:16.293Z,57.80
2018-01-02T13:43:44.753Z,57.70
2018-01-02T13:46:15.088Z,57.00
2018-01-02T13:48:43.428Z,57.50
2018-01-02T13:51:13.290Z,57.60
2018-01-02T13:53:41.649Z,57.70
2018-01-02T13:56:09.876Z,57.60
2018-01-02T13:58:39.075Z,57.30
2018-01-02T14:01:07.558Z,57.20
2018-01-02T14:03:36.524Z,57.40
2018-01-02T14:06:04.786Z,57.20
2018-01-02T14:08:33.089Z,57.30
2018-01-02T14:11:01.450Z,57.70
2018-01-02T14:13:29.682Z,57.40
2018-01-02T14:15:58.708Z,57.30
2018-01-02T14:18:26.997Z,57.30
2018-01-02T14:20:55.265Z,57.20
2018-01-02T14:23:23.515Z,56.60
2018-01-02T14:25:51.766Z,56.80
2018-01-02T14:28:20.858Z,56.70
2018-01-02T14:30:49.131Z,57.00
2018-01-02T14:33:21.363Z,56.90
2018-01-02T14:35:49.619Z,56.60
2018-01-02T14:38:17.873Z,56.60
2018-01-02T14:40:46.160Z,56.40
2018-01-02T14:43:15.378Z,56.40
2018-01-02T14:45:43.645Z,56.20
2018-01-02T14:48:11.887Z,56.20
2018-01-02T14:50:40.937Z,56.00
2018-01-02T14:53:09.214Z,56.00
2018-01-02T14:55:37.536Z,56.00
2018-01-02T14:58:06.560Z,55.90
2018-01-02T15:00:34.816Z,55.90
2018-01-02T15:03:03.127Z,55.80
2018-01-02T15:05:32.205Z,55.90
2018-01-02T15:08:01.358Z,55.70
2018-01-02T15:10:30.657Z,55.80
2018-01-02T15:12:59.039Z,55.90
2018-01-02T15:15:27.293Z,56.50
2018-01-02T15:17:55.550Z,55.70
2018-01-02T15:20:24.655Z,55.90
2018-01-02T15:22:52.982Z,55.60
2018-01-02T15:25:22.124Z,55.70
2018-01-02T15:27:50.377Z,55.70
2018-01-02T15:30:18.677Z,55.70
2018-01-02T15:32:47.203Z,55.50
2018-01-02T15:35:19.978Z,55.60
2018-01-02T15:37:49.273Z,55.30
2018-01-02T15:40:18.303Z,55.40
2018-01-02T15:42:46.597Z,55.40
2018-01-02T15:45:14.837Z,55.60
2018-01-02T15:47:43.151Z,55.60
2018-01-02T15:50:12.405Z,55.50
2018-01-02T15:52:40.675Z,55.40
2018-01-02T15:55:08.957Z,55.40
2018-01-02T15:57:38.092Z,55.50
2018-01-02T16:00:06.423Z,55.80
2018-01-02T16:02:36.524Z,55.80
2018-01-02T16:05:04.891Z,55.90
2018-01-02T16:07:33.136Z,55.90
2018-01-02T16:10:02.109Z,55.90
2018-01-02T16:12:31.156Z,55.80
2018-01-02T16:14:59.421Z,55.70
2018-01-02T16:17:28.528Z,55.70
2018-01-02T16:19:56.789Z,55.80
2018-01-02T16:22:25.047Z,55.90
2018-01-02T16:24:53.327Z,55.70
2018-01-02T16:27:21.567Z,55.50
2018-01-02T16:29:49.849Z,55.60
2018-01-02T16:32:18.118Z,55.40
2018-01-02T16:34:46.637Z,55.40
2018-01-02T16:37:14.932Z,55.40
2018-01-02T16:39:43.210Z,55.50
2018-01-02T16:42:11.697Z,55.40
2018-01-02T16:44:40.001Z,55.30
2018-01-02T16:47:08.258Z,55.40
2018-01-02T16:49:36.523Z,55.50
2018-01-02T16:52:05.696Z,55.50
2018-01-02T16:54:33.984Z,55.40
2018-01-02T16:57:02.249Z,55.30
2018-01-02T16:59:30.539Z,55.90
2018-01-02T17:01:59.398Z,55.10
2018-01-02T17:04:28.570Z,54.70
2018-01-02T17:06:56.842Z,54.80
2018-01-02T17:09:26.142Z,54.70
2018-01-02T17:11:54.418Z,54.60
2018-01-02T17:14:22.689Z,55.20
2018-01-02T17:16:50.934Z,54.80
2018-01-02T17:19:19.384Z,55.00
2018-01-02T17:21:48.476Z,54.80
2018-01-02T17:24:18.678Z,54.90
2018-01-02T17:26:47.563Z,54.80
2018-01-02T17:29:17.274Z,54.80
2018-01-02T17:31:46.376Z,55.00
2018-01-02T17:34:15.065Z,55.10
2018-01-02T17:36:43.934Z,54.50
2018-01-02T17:39:12.539Z,54.50
2018-01-02T17:41:41.489Z,54.90
2018-01-02T17:44:10.211Z,54.80
2018-01-02T17:46:39.104Z,54.80
2018-01-02T17:49:07.785Z,54.50
2018-01-02T17:51:37.925Z,54.70
2018-01-02T17:54:06.572Z,54.40
2018-01-02T17:56:35.083Z,54.40
2018-01-02T17:59:03.755Z,54.50
2018-01-02T18:01:32.354Z,54.50
2018-01-02T18:04:00.678Z,54.60
2018-01-02T18:06:29.049Z,54.60
2018-01-02T18:08:57.298Z,54.60
2018-01-02T18:11:25.978Z,54.60
2018-01-02T18:13:56.553Z,54.70
2018-01-02T18:16:24.888Z,54.70
2018-01-02T18:18:53.197Z,54.90
2018-01-02T18:21:21.525Z,55.10
2018-01-02T18:23:50.683Z,54.80
2018-01-02T18:26:18.959Z,54.50
2018-01-02T18:28:47.229Z,54.70
2018-01-02T18:31:15.663Z,54.70
2018-01-02T18:33:44.731Z,54.70
2018-01-02T18:36:12.991Z,54.70
2018-01-02T18:38:41.258Z,54.60
2018-01-02T18:41:09.552Z,54.90
2018-01-02T18:43:38.584Z,54.70
2018-01-02T18:46:07.816Z,54.90
2018-01-02T18:48:36.117Z,54.70
2018-01-02T18:51:05.141Z,54.70
2018-01-02T18:53:33.451Z,55.10
2018-01-02T18:56:01.820Z,54.80
2018-01-02T18:58:30.114Z,55.00
2018-01-02T19:00:58.442Z,55.20
2018-01-02T19:03:26.698Z,54.80
2018-01-02T19:05:54.973Z,55.00
2018-01-02T19:08:23.405Z,55.00
2018-01-02T19:10:52.516Z,55.00
2018-01-02T19:13:21.982Z,55.30
2018-01-02T19:15:50.242Z,55.60
2018-01-02T19:18:18.697Z,55.40
2018-01-02T19:20:47.037Z,55.10
2018-01-02T19:23:15.305Z,55.30
2018-01-02T19:25:43.587Z,55.40
2018-01-02T19:28:12.766Z,55.90
2018-01-02T19:30:41.006Z,56.10
2018-01-02T19:33:09.356Z,56.10
2018-01-02T19:35:37.795Z,55.90
2018-01-02T19:38:06.904Z,56.00
2018-01-02T19:40:35.144Z,56.40
2018-01-02T19:43:03.448Z,56.70
2018-01-02T19:45:33.336Z,56.90
2018-01-02T19:48:01.603Z,57.00
2018-01-02T19:50:29.921Z,56.80
2018-01-02T19:53:00.121Z,57.10
2018-01-02T19:55:28.515Z,57.50
2018-01-02T19:57:56.771Z,57.70
2018-01-02T20:00:25.078Z,57.60
2018-01-02T20:02:53.418Z,57.60
2018-01-02T20:05:24.494Z,57.50
2018-01-02T20:07:53.720Z,57.80
2018-01-02T20:10:22.166Z,57.70
2018-01-02T20:12:52.395Z,57.90
2018-01-02T20:15:20.700Z,58.10
2018-01-02T20:17:49.148Z,58.20
2018-01-02T20:20:19.683Z,58.20
2018-01-02T20:22:49.722Z,58.30
2018-01-02T20:25:20.800Z,58.40
2018-01-02T20:27:49.181Z,58.40
2018-01-02T20:30:17.549Z,58.50
2018-01-02T20:32:45.972Z,58.90
2018-01-02T20:35:14.262Z,58.90
2018-01-02T20:37:42.485Z,58.90
2018-01-02T20:40:10.759Z,58.80
2018-01-02T20:42:40.574Z,59.10
2018-01-02T20:45:08.861Z,58.80
2018-01-02T20:47:37.089Z,58.90
2018-01-02T20:50:05.959Z,58.70
2018-01-02T20:52:34.212Z,58.70
2018-01-02T20:55:02.466Z,58.60
2018-01-02T20:57:30.788Z,58.80
2018-01-02T20:59:59.294Z,58.60
2018-01-02T21:02:27.546Z,58.90
2018-01-02T21:04:55.873Z,59.60
2018-01-02T21:07:24.817Z,58.70
2018-01-02T21:09:53.275Z,59.10
2018-01-02T21:12:21.527Z,58.90
2018-01-02T21:14:49.760Z,59.00
2018-01-02T21:17:18.021Z,58.90
2018-01-02T21:19:47.660Z,59.00
2018-01-02T21:22:16.101Z,59.10
2018-01-02T21:24:44.488Z,58.90
2018-01-02T21:27:12.966Z,59.00
2018-01-02T21:29:41.454Z,59.10
2018-01-02T21:32:09.933Z,59.30
2018-01-02T21:34:38.990Z,59.40
2018-01-02T21:37:08.836Z,59.60
2018-01-02T21:39:37.188Z,59.60
2018-01-02T21:42:05.460Z,59.60
2018-01-02T21:44:33.800Z,59.80
2018-01-02T21:47:02.086Z,59.80
2018-01-02T21:49:31.086Z,59.50
2018-01-02T21:51:59.353Z,59.50
2018-01-02T21:54:28.501Z,59.70
2018-01-02T21:56:56.895Z,59.40
2018-01-02T21:59:25.269Z,59.60
2018-01-02T22:01:53.546Z,59.50
2018-01-02T22:04:22.091Z,59.40
2018-01-02T22:06:50.351Z,59.30
2018-01-02T22:09:18.654Z,59.40
2018-01-02T22:11:48.091Z,59.50
2018-01-02T22:14:16.568Z,59.40
2018-01-02T22:16:48.323Z,59.50
2018-01-02T22:19:16.572Z,59.50
2018-01-02T22:21:45.695Z,59.50
2018-01-02T22:24:14.137Z,59.60
2018-01-02T22:26:42.407Z,59.70
2018-01-02T22:29:10.664Z,59.80
2018-01-02T22:31:39.816Z,59.90
2018-01-02T22:34:08.076Z,60.00
2018-01-02T22:36:37.608Z,60.20
2018-01-02T22:39:05.889Z,60.60
2018-01-02T22:41:34.420Z,60.60
2018-01-02T22:44:02.680Z,60.80
2018-01-02T22:46:30.919Z,61.00
2018-01-02T22:48:59.264Z,61.00
2018-01-02T22:51:27.519Z,61.00
2018-01-02T22:53:55.765Z,61.30
2018-01-02T22:56:24.034Z,61.10
2018-01-02T22:58:52.290Z,61.30
2018-01-02T23:01:20.575Z,61.50
2018-01-02T23:03:48.850Z,61.60
2018-01-02T23:06:17.331Z,61.40
2018-01-02T23:08:45.550Z,61.70
2018-01-02T23:11:13.817Z,61.60
2018-01-02T23:13:42.063Z,61.80
2018-01-02T23:16:10.351Z,61.70
2018-01-02T23:18:38.652Z,61.30
2018-01-02T23:21:06.916Z,61.80
2018-01-02T23:23:36.590Z,62.30
2018-01-02T23:26:04.856Z,62.00
2018-01-02T23:28:33.122Z,62.10
2018-01-02T23:31:01.376Z,62.30
2018-01-02T23:33:29.627Z,62.40
2018-01-02T23:35:58.070Z,62.50
2018-01-02T23:38:26.565Z,62.60
2018-01-02T23:40:54.785Z,62.50
2018-01-02T23:43:23.033Z,62.80
2018-01-02T23:45:52.113Z,62.90
2018-01-02T23:48:20.360Z,62.90
2018-01-02T23:50:48.872Z,62.90
2018-01-02T23:53:17.129Z,63.10
2018-01-02T23:55:45.397Z,63.00
2018-01-02T23:58:13.665Z,63.20
